Time;durP1;ratioP1;P1;durP2;ratioP2;P2;SDS_P1;SDS_P2;PMS_P1;PMS_P2;Temp;Humidity;BMP_temperature;BMP_pressure;BME280_temperature;BME280_humidity;BME280_pressure;Samples;Min_cycle;Max_cycle;Signal;HPM_P1;HPM_P2
2022/03/04 00:00:46;;;;;;;20.15;8.30;;;;;;;-0.71;52.76;102326.22;4924208;28;20496;-71
2022/03/04 00:03:12;;;;;;;20.10;8.40;;;;;;;-0.72;53.05;102339.03;4927012;28;20078;-73
2022/03/04 00:05:39;;;;;;;20.02;7.53;;;;;;;-0.78;53.16;102338.00;4925747;28;20540;-73
2022/03/04 00:08:05;;;;;;;16.27;7.30;;;;;;;-0.77;53.19;102332.06;4927557;28;20489;-72
2022/03/04 00:10:31;;;;;;;19.27;8.60;;;;;;;-0.80;53.36;102328.50;4941282;28;20093;-71
2022/03/04 00:12:57;;;;;;;22.67;9.35;;;;;;;-0.89;53.80;102329.09;4926070;28;20535;-71
2022/03/04 00:15:23;;;;;;;21.77;8.20;;;;;;;-0.80;53.36;102336.22;4924113;28;20027;-70
2022/03/04 00:17:49;;;;;;;21.50;9.02;;;;;;;-0.83;53.39;102331.00;4927153;28;20058;-71
2022/03/04 00:20:14;;;;;;;22.38;9.25;;;;;;;-0.86;53.40;102330.88;4926064;28;20162;-70
2022/03/04 00:22:40;;;;;;;23.75;10.05;;;;;;;-0.87;53.62;102342.00;4924566;28;20047;-71
2022/03/04 00:25:06;;;;;;;27.20;11.13;;;;;;;-0.98;54.20;102332.25;4942898;28;20051;-70
2022/03/04 00:27:32;;;;;;;19.20;9.38;;;;;;;-0.95;53.73;102334.06;4924660;28;20050;-70
2022/03/04 00:29:57;;;;;;;20.58;9.63;;;;;;;-1.02;54.03;102322.72;4929519;28;20490;-70
2022/03/04 00:32:23;;;;;;;19.58;9.52;;;;;;;-1.09;54.12;102325.88;4925671;28;20159;-70
2022/03/04 00:34:50;;;;;;;23.10;9.48;;;;;;;-1.09;53.61;102331.00;4926403;28;20094;-70
2022/03/04 00:37:16;;;;;;;21.05;9.25;;;;;;;-1.12;53.83;102330.91;4923947;28;20043;-70
2022/03/04 00:39:42;;;;;;;21.88;9.10;;;;;;;-1.21;53.96;102331.50;4927730;28;20035;-70
2022/03/04 00:42:07;;;;;;;24.15;10.60;;;;;;;-1.07;53.78;102339.63;4926821;28;20524;-69
2022/03/04 00:44:33;;;;;;;18.35;8.02;;;;;;;-1.21;54.41;102341.75;4928138;28;20456;-70
2022/03/04 00:46:58;;;;;;;24.00;10.25;;;;;;;-1.11;54.19;102348.03;4940693;28;20501;-70
2022/03/04 00:49:24;;;;;;;23.98;8.80;;;;;;;-1.21;54.44;102351.16;4930890;28;20067;-70
2022/03/04 00:51:49;;;;;;;20.77;9.82;;;;;;;-1.23;54.40;102347.66;4927207;28;20039;-69
2022/03/04 00:54:15;;;;;;;22.55;9.88;;;;;;;-1.21;54.36;102358.84;4927208;28;20061;-70
2022/03/04 00:56:41;;;;;;;18.95;9.35;;;;;;;-1.24;54.04;102356.16;4923261;28;20043;-69
2022/03/04 00:59:07;;;;;;;23.77;9.05;;;;;;;-1.18;54.02;102352.09;4927782;28;20055;-70
2022/03/04 01:01:32;;;;;;;23.40;10.00;;;;;;;-1.26;53.92;102355.28;4925995;28;20036;-70
2022/03/04 01:03:58;;;;;;;18.50;9.15;;;;;;;-1.19;53.89;102354.63;4926100;28;20338;-70
2022/03/04 01:06:23;;;;;;;22.45;8.90;;;;;;;-1.21;54.13;102362.28;4925608;28;20043;-70
2022/03/04 01:08:48;;;;;;;19.60;9.30;;;;;;;-1.31;53.97;102362.78;4923139;28;20043;-70
2022/03/04 01:11:14;;;;;;;23.55;9.23;;;;;;;-1.29;53.68;102362.84;4928123;28;20067;-70
2022/03/04 01:13:39;;;;;;;20.17;9.50;;;;;;;-1.35;53.70;102362.63;4924957;28;20055;-70
2022/03/04 01:16:06;;;;;;;19.70;9.63;;;;;;;-1.43;54.03;102360.69;4942880;28;20047;-71
2022/03/04 01:18:31;;;;;;;23.98;8.93;;;;;;;-1.49;54.47;102370.72;4925789;28;20043;-71
2022/03/04 01:20:57;;;;;;;27.58;10.15;;;;;;;-1.42;54.75;102362.47;4924074;28;20497;-71
2022/03/04 01:23:22;;;;;;;21.90;9.93;;;;;;;-1.41;54.60;102371.00;4944121;28;20047;-72
2022/03/04 01:25:52;;;;;;;25.50;10.32;;;;;;;-1.36;54.43;102366.03;4927035;28;20035;-71
2022/03/04 01:28:19;;;;;;;21.80;9.15;;;;;;;-1.43;54.34;102370.09;4928331;28;20047;-71
2022/03/04 01:30:45;;;;;;;23.80;10.13;;;;;;;-1.41;54.71;102374.44;4922554;28;20040;-71
2022/03/04 01:33:10;;;;;;;14.98;7.90;;;;;;;-1.36;54.54;102371.16;4924163;28;20055;-71
2022/03/04 01:35:36;;;;;;;25.67;9.20;;;;;;;-1.43;54.32;102370.94;4925037;28;20093;-70
2022/03/04 01:38:02;;;;;;;23.48;9.70;;;;;;;-1.41;54.46;102369.31;4924906;28;20051;-71
2022/03/04 01:40:28;;;;;;;23.38;10.38;;;;;;;-1.49;54.98;102368.16;4924914;28;20031;-71
2022/03/04 01:42:54;;;;;;;29.33;10.10;;;;;;;-1.50;54.99;102369.00;4925433;28;20042;-71
2022/03/04 01:45:20;;;;;;;21.67;10.70;;;;;;;-1.45;54.89;102366.59;4926701;28;20539;-71
2022/03/04 01:47:46;;;;;;;23.85;10.88;;;;;;;-1.50;54.94;102363.00;4941007;28;20056;-71
2022/03/04 01:50:11;;;;;;;27.02;11.43;;;;;;;-1.47;54.94;102363.97;4941011;28;20497;-71
2022/03/04 01:52:37;;;;;;;25.30;10.35;;;;;;;-1.47;54.61;102353.72;4924111;28;20072;-71
2022/03/04 01:55:04;;;;;;;27.20;11.25;;;;;;;-1.50;54.76;102358.75;4925987;28;20516;-70
2022/03/04 01:57:30;;;;;;;26.52;10.65;;;;;;;-1.51;54.73;102362.16;4925887;28;20039;-71
2022/03/04 01:59:55;;;;;;;28.90;10.95;;;;;;;-1.60;55.40;102361.81;4929934;28;20042;-71
2022/03/04 02:02:20;;;;;;;20.83;11.13;;;;;;;-1.53;54.79;102357.75;4925447;28;20075;-71
2022/03/04 02:04:49;;;;;;;20.85;8.93;;;;;;;-1.57;55.15;102361.06;4924809;28;20154;-71
2022/03/04 02:07:14;;;;;;;23.92;9.30;;;;;;;-1.56;54.83;102368.78;4925007;28;20046;-71
2022/03/04 02:09:40;;;;;;;25.23;10.07;;;;;;;-1.63;55.03;102366.84;4925104;28;20032;-71
2022/03/04 02:12:05;;;;;;;22.52;9.35;;;;;;;-1.61;54.72;102360.06;4924479;28;20093;-71
2022/03/04 02:14:31;;;;;;;21.02;9.93;;;;;;;-1.62;54.32;102369.47;4927491;28;20043;-71
2022/03/04 02:16:56;;;;;;;26.17;10.23;;;;;;;-1.80;54.76;102369.69;4923594;28;20180;-71
2022/03/04 02:19:23;;;;;;;21.30;9.38;;;;;;;-1.87;54.63;102352.34;4927184;28;20051;-71
2022/03/04 02:21:53;;;;;;;20.40;8.90;;;;;;;-1.90;54.47;102357.38;4923618;28;20075;-71
2022/03/04 02:24:19;;;;;;;23.88;8.93;;;;;;;-1.97;54.83;102359.66;4926501;28;20046;-71
2022/03/04 02:26:45;;;;;;;25.52;10.13;;;;;;;-1.96;55.00;102361.41;4926355;28;20039;-71
2022/03/04 02:29:11;;;;;;;28.10;9.93;;;;;;;-1.95;55.03;102360.59;4924375;28;20465;-71
2022/03/04 02:31:36;;;;;;;26.75;10.13;;;;;;;-1.95;54.79;102365.72;4926962;28;20027;-71
2022/03/04 02:34:02;;;;;;;24.25;9.57;;;;;;;-1.90;55.04;102362.50;4924801;28;20509;-71
2022/03/04 02:36:28;;;;;;;23.65;9.65;;;;;;;-1.89;55.39;102363.34;4927108;28;20039;-71
2022/03/04 02:38:53;;;;;;;23.60;9.27;;;;;;;-1.86;55.19;102371.16;4925971;28;20043;-71
2022/03/04 02:41:19;;;;;;;23.40;9.30;;;;;;;-1.94;55.11;102365.75;4926763;28;20046;-72
2022/03/04 02:43:45;;;;;;;22.75;9.73;;;;;;;-1.97;54.89;102363.09;4921308;28;20114;-71
2022/03/04 02:46:13;;;;;;;23.27;9.75;;;;;;;-2.11;55.06;102361.72;4926793;28;20039;-71
2022/03/04 02:48:39;;;;;;;27.00;9.50;;;;;;;-2.10;55.67;102368.59;4926272;28;20051;-71
2022/03/04 02:51:05;;;;;;;18.15;8.48;;;;;;;-2.02;55.30;102370.63;4942703;28;20039;-71
2022/03/04 02:53:30;;;;;;;23.33;9.50;;;;;;;-1.96;55.33;102367.38;4943327;28;20544;-71
2022/03/04 02:55:56;;;;;;;22.48;9.27;;;;;;;-1.96;56.05;102372.50;4924787;28;20163;-71
2022/03/04 02:58:21;;;;;;;26.52;9.18;;;;;;;-1.90;55.79;102370.19;4927949;28;20040;-72
2022/03/04 03:00:47;;;;;;;22.20;8.48;;;;;;;-1.91;55.85;102370.09;4927529;28;20043;-72
2022/03/04 03:03:12;;;;;;;23.48;8.75;;;;;;;-1.87;56.08;102370.28;4926646;28;20058;-72
2022/03/04 03:05:38;;;;;;;20.80;8.25;;;;;;;-1.94;56.42;102376.00;4941275;28;20488;-71
2022/03/04 03:08:03;;;;;;;20.42;8.35;;;;;;;-2.24;56.86;102371.53;4935788;28;20132;-70
2022/03/04 03:10:31;;;;;;;27.55;8.15;;;;;;;-2.32;57.16;102377.16;4926122;28;20173;-70
2022/03/04 03:12:56;;;;;;;21.10;8.88;;;;;;;-2.20;57.24;102364.84;4931577;28;20043;-70
2022/03/04 03:15:22;;;;;;;24.13;8.25;;;;;;;-2.33;57.77;102370.31;4928236;28;20050;-71
2022/03/04 03:17:47;;;;;;;21.83;10.10;;;;;;;-2.33;57.63;102360.94;4925963;28;20067;-71
2022/03/04 03:20:13;;;;;;;18.80;8.15;;;;;;;-2.44;58.06;102367.34;4930660;28;20040;-71
2022/03/04 03:22:38;;;;;;;24.05;9.20;;;;;;;-1.92;56.37;102363.25;4926463;28;20039;-71
2022/03/04 03:25:04;;;;;;;20.95;7.88;;;;;;;-2.41;57.64;102362.31;4929228;28;20050;-70
2022/03/04 03:27:30;;;;;;;23.70;8.80;;;;;;;-2.30;57.30;102355.06;4942982;28;20076;-70
2022/03/04 03:29:55;;;;;;;23.42;8.15;;;;;;;-2.24;57.09;102361.28;4930140;28;20412;-71
2022/03/04 03:32:21;;;;;;;23.35;9.18;;;;;;;-2.38;57.11;102357.34;4929052;28;20046;-70
2022/03/04 03:34:47;;;;;;;25.33;8.35;;;;;;;-2.40;57.33;102353.84;4926699;28;20568;-70
2022/03/04 03:37:12;;;;;;;20.88;8.57;;;;;;;-2.25;56.61;102349.25;4925393;28;20178;-71
2022/03/04 03:39:38;;;;;;;20.17;7.55;;;;;;;-2.29;56.73;102347.44;4943212;28;20035;-71
2022/03/04 03:42:05;;;;;;;20.85;8.30;;;;;;;-2.39;56.82;102355.56;4925561;28;20040;-71
2022/03/04 03:44:31;;;;;;;24.10;8.15;;;;;;;-2.42;57.18;102355.47;4925996;28;20032;-70
2022/03/04 03:46:56;;;;;;;31.15;9.30;;;;;;;-2.32;56.85;102352.41;4929411;28;20545;-70
2022/03/04 03:49:22;;;;;;;19.35;7.93;;;;;;;-2.38;57.14;102357.34;4929128;28;20046;-71
2022/03/04 03:51:49;;;;;;;16.65;7.82;;;;;;;-2.36;57.03;102358.25;4925226;28;20224;-70
2022/03/04 03:54:14;;;;;;;23.83;8.00;;;;;;;-2.50;57.44;102362.84;4944482;28;20047;-71
2022/03/04 03:56:40;;;;;;;25.63;7.88;;;;;;;-2.24;56.59;102360.41;4927798;28;20042;-71
2022/03/04 03:59:06;;;;;;;19.20;7.63;;;;;;;-2.11;55.87;102361.72;4939279;28;20497;-71
2022/03/04 04:01:31;;;;;;;20.70;7.00;;;;;;;-2.16;55.71;102364.09;4929247;28;20035;-71
2022/03/04 04:03:57;;;;;;;20.00;7.95;;;;;;;-2.20;55.85;102362.28;4927416;28;20051;-72
2022/03/04 04:06:23;;;;;;;21.50;7.93;;;;;;;-2.11;55.51;102369.38;4926895;28;20031;-72
2022/03/04 04:08:48;;;;;;;22.98;7.70;;;;;;;-2.11;55.51;102371.94;4927272;28;20754;-71
2022/03/04 04:11:14;;;;;;;19.98;7.53;;;;;;;-2.14;55.46;102362.47;4927267;28;20053;-70
2022/03/04 04:13:39;;;;;;;21.55;8.32;;;;;;;-2.18;55.75;102364.88;4924087;28;20052;-72
2022/03/04 04:16:05;;;;;;;19.92;9.10;;;;;;;-2.28;55.99;102364.53;4927162;28;20504;-70
2022/03/04 04:18:31;;;;;;;16.73;7.47;;;;;;;-2.24;55.48;102366.41;4925283;28;20102;-70
2022/03/04 04:20:56;;;;;;;23.52;8.60;;;;;;;-2.36;55.96;102368.47;4927146;28;20600;-69
2022/03/04 04:23:22;;;;;;;19.27;7.70;;;;;;;-2.29;55.84;102367.91;4925386;28;20044;-70
2022/03/04 04:25:47;;;;;;;24.13;7.55;;;;;;;-2.27;55.73;102368.84;4925487;28;20512;-70
2022/03/04 04:28:12;;;;;;;23.40;7.68;;;;;;;-2.28;55.74;102374.78;4926918;28;20753;-70
2022/03/04 04:30:38;;;;;;;17.42;7.28;;;;;;;-2.21;55.31;102371.63;4927220;28;20035;-70
2022/03/04 04:33:03;;;;;;;20.10;8.55;;;;;;;-2.24;55.36;102383.47;4927674;28;20051;-70
2022/03/04 04:35:29;;;;;;;18.98;7.78;;;;;;;-2.26;55.16;102378.28;4924531;28;20038;-70
2022/03/04 04:37:54;;;;;;;18.88;7.75;;;;;;;-2.32;54.91;102370.34;4927221;28;20047;-69
2022/03/04 04:40:20;;;;;;;15.90;8.45;;;;;;;-2.48;55.59;102376.59;4925125;28;20054;-72
2022/03/04 04:42:45;;;;;;;24.70;8.65;;;;;;;-2.39;55.54;102378.63;4926986;28;20040;-72
2022/03/04 04:45:11;;;;;;;24.02;8.10;;;;;;;-2.30;55.17;102378.09;4928246;28;20138;-72
2022/03/04 04:47:37;;;;;;;19.40;8.52;;;;;;;-2.46;55.65;102385.19;4926328;28;20134;-72
2022/03/04 04:50:03;;;;;;;16.50;7.82;;;;;;;-2.37;55.48;102384.69;4927823;28;20347;-72
2022/03/04 04:52:29;;;;;;;17.30;7.95;;;;;;;-2.35;55.56;102383.06;4926914;28;20311;-72
2022/03/04 04:54:54;;;;;;;18.77;7.57;;;;;;;-2.34;54.97;102382.22;4925618;28;20042;-72
2022/03/04 04:57:20;;;;;;;17.65;6.90;;;;;;;-2.37;54.85;102379.56;4926629;28;20039;-71
2022/03/04 04:59:45;;;;;;;18.48;6.82;;;;;;;-2.45;55.24;102378.38;4941505;28;20115;-72
2022/03/04 05:02:11;;;;;;;22.02;7.75;;;;;;;-2.47;55.28;102378.34;4925784;28;20055;-72
2022/03/04 05:04:36;;;;;;;16.65;6.57;;;;;;;-2.43;55.26;102382.75;4940884;28;20131;-72
2022/03/04 05:07:02;;;;;;;15.38;7.00;;;;;;;-2.49;55.26;102382.53;4940381;28;20799;-72
2022/03/04 05:09:28;;;;;;;21.00;6.80;;;;;;;-2.46;55.19;102379.22;4927001;28;20501;-72
2022/03/04 05:11:54;;;;;;;14.95;6.25;;;;;;;-2.47;55.50;102385.13;4923180;28;20031;-72
2022/03/04 05:14:19;;;;;;;22.10;7.68;;;;;;;-2.44;55.04;102387.81;4923848;28;20067;-72
2022/03/04 05:16:44;;;;;;;15.20;5.68;;;;;;;-2.57;55.72;102383.06;4926983;28;20452;-72
2022/03/04 05:19:10;;;;;;;16.75;6.70;;;;;;;-2.42;55.43;102376.81;4925356;28;20762;-72
2022/03/04 05:21:36;;;;;;;22.35;7.85;;;;;;;-2.36;54.96;102376.16;4941186;28;20028;-72
2022/03/04 05:24:02;;;;;;;16.13;6.13;;;;;;;-2.58;55.21;102378.72;4922053;28;20074;-72
2022/03/04 05:26:33;;;;;;;20.52;6.60;;;;;;;-2.43;54.81;102374.19;4928268;28;20043;-72
2022/03/04 05:29:00;;;;;;;17.13;6.82;;;;;;;-2.43;54.90;102374.19;4924508;28;20134;-72
2022/03/04 05:31:27;;;;;;;15.45;7.18;;;;;;;-2.46;54.97;102377.50;4927284;28;20129;-72
2022/03/04 05:33:53;;;;;;;18.42;6.05;;;;;;;-2.48;55.30;102375.72;4921764;28;20509;-73
2022/03/04 05:36:19;;;;;;;16.15;7.30;;;;;;;-2.41;54.85;102372.56;4925687;28;20039;-72
2022/03/04 05:38:45;;;;;;;14.40;7.22;;;;;;;-2.43;55.02;102374.19;4925452;28;20040;-72
2022/03/04 05:41:12;;;;;;;19.63;7.47;;;;;;;-2.54;55.06;102366.09;4941936;28;20548;-72
2022/03/04 05:43:38;;;;;;;18.33;7.43;;;;;;;-2.43;54.70;102374.19;4924793;28;20035;-73
2022/03/04 05:46:04;;;;;;;17.27;7.47;;;;;;;-2.42;54.72;102365.72;4923540;28;20043;-72
2022/03/04 05:48:30;;;;;;;20.60;5.90;;;;;;;-2.44;54.62;102368.22;4922655;28;20063;-72
2022/03/04 05:50:56;;;;;;;17.35;7.15;;;;;;;-2.48;54.94;102373.16;4927156;28;20568;-70
2022/03/04 05:53:22;;;;;;;16.83;6.80;;;;;;;-2.47;54.62;102377.44;4925950;28;20517;-70
2022/03/04 05:55:48;;;;;;;19.55;6.90;;;;;;;-2.49;54.34;102379.06;4922687;28;20032;-70
2022/03/04 05:58:13;;;;;;;15.85;6.15;;;;;;;-2.53;54.39;102377.25;4925645;28;20632;-70
2022/03/04 06:00:39;;;;;;;22.75;7.47;;;;;;;-2.61;54.63;102378.63;4925042;28;20130;-70
2022/03/04 06:03:04;;;;;;;20.00;8.57;;;;;;;-2.58;54.91;102374.50;4927746;28;20090;-72
2022/03/04 06:05:30;;;;;;;18.70;7.28;;;;;;;-2.70;55.67;102380.00;4925077;28;20027;-71
2022/03/04 06:07:55;;;;;;;16.08;7.18;;;;;;;-2.63;55.04;102376.84;4926069;28;20039;-71
2022/03/04 06:10:20;;;;;;;18.10;6.20;;;;;;;-2.52;54.78;102378.97;4927666;28;20036;-73
2022/03/04 06:12:46;;;;;;;19.42;7.95;;;;;;;-2.48;54.57;102380.84;4926846;28;20040;-72
2022/03/04 06:15:11;;;;;;;18.40;7.78;;;;;;;-2.52;54.80;102384.09;4925212;28;20337;-71
2022/03/04 06:17:37;;;;;;;19.50;8.52;;;;;;;-2.49;54.52;102394.44;4908718;28;20050;-70
2022/03/04 06:20:03;;;;;;;20.17;7.20;;;;;;;-2.48;54.81;102386.81;4926359;28;20111;-70
2022/03/04 06:22:29;;;;;;;17.70;7.07;;;;;;;-2.50;54.97;102388.44;4943247;28;20042;-75
2022/03/04 06:24:54;;;;;;;13.77;6.20;;;;;;;-2.45;54.84;102391.19;4928141;28;20527;-74
2022/03/04 06:27:20;;;;;;;20.63;7.28;;;;;;;-2.44;55.13;102392.94;4929314;28;20040;-72
2022/03/04 06:29:45;;;;;;;14.48;6.43;;;;;;;-2.42;55.00;102391.31;4927570;28;20038;-72
2022/03/04 06:32:13;;;;;;;24.30;8.15;;;;;;;-2.42;54.93;102387.06;4928965;28;20054;-71
2022/03/04 06:34:39;;;;;;;22.83;6.55;;;;;;;-2.38;54.83;102394.84;4928677;28;20047;-71
2022/03/04 06:37:04;;;;;;;16.55;8.02;;;;;;;-2.29;55.25;102406.34;4929886;28;20039;-71
2022/03/04 06:39:30;;;;;;;19.13;7.30;;;;;;;-2.22;54.83;102405.75;4929966;28;20527;-72
2022/03/04 06:41:55;;;;;;;18.55;7.63;;;;;;;-2.31;55.13;102410.53;4927990;28;20070;-73
2022/03/04 06:44:21;;;;;;;18.45;6.20;;;;;;;-2.14;54.45;102413.72;4928469;28;20327;-71
2022/03/04 06:46:47;;;;;;;18.95;7.20;;;;;;;-2.07;54.38;102404.56;4926746;28;20043;-71
2022/03/04 06:49:12;;;;;;;16.23;6.28;;;;;;;-2.11;54.58;102397.56;4926666;28;20027;-71
2022/03/04 06:51:39;;;;;;;18.65;7.78;;;;;;;-2.06;54.36;102396.06;4942606;28;20035;-73
2022/03/04 06:54:05;;;;;;;17.42;6.93;;;;;;;-2.04;54.57;102399.56;4942557;28;20177;-72
2022/03/04 06:56:31;;;;;;;15.27;6.60;;;;;;;-1.96;54.83;102403.25;4944664;28;20117;-71
2022/03/04 06:58:56;;;;;;;20.23;6.65;;;;;;;-1.96;54.39;102403.25;4942512;28;20568;-72
2022/03/04 07:01:21;;;;;;;19.90;7.13;;;;;;;-1.87;54.50;102397.59;4926996;28;20660;-72
2022/03/04 07:03:48;;;;;;;18.73;6.88;;;;;;;-1.71;54.30;102399.00;4924559;28;20884;-72
2022/03/04 07:06:13;;;;;;;16.88;6.03;;;;;;;-1.74;54.26;102407.47;4930869;28;20424;-71
2022/03/04 07:08:39;;;;;;;14.07;6.20;;;;;;;-1.67;53.99;102416.25;4941575;28;20038;-72
2022/03/04 07:11:05;;;;;;;17.38;6.10;;;;;;;-1.37;54.14;102413.91;4926775;28;20512;-69
2022/03/04 07:13:31;;;;;;;20.25;7.68;;;;;;;-0.01;52.24;102416.50;4927737;28;20042;-70
2022/03/04 07:15:57;;;;;;;17.10;6.55;;;;;;;1.94;49.02;102408.44;4928965;28;20043;-70
2022/03/04 07:18:29;;;;;;;16.45;6.65;;;;;;;3.17;45.64;102416.69;4928361;28;20114;-70
2022/03/04 07:20:56;;;;;;;12.93;5.38;;;;;;;4.14;41.27;102410.28;4924969;28;20651;-70
2022/03/04 07:23:22;;;;;;;10.10;4.78;;;;;;;5.28;39.39;102407.88;4944388;28;20051;-70
2022/03/04 07:25:48;;;;;;;11.18;4.35;;;;;;;5.50;36.81;102407.13;4927264;28;20040;-70
2022/03/04 07:28:14;;;;;;;8.82;4.38;;;;;;;5.73;36.23;102406.41;4929836;28;20390;-70
2022/03/04 07:30:39;;;;;;;12.27;6.35;;;;;;;5.34;35.49;102406.19;4906922;28;20336;-70
2022/03/04 07:33:04;;;;;;;12.25;5.15;;;;;;;5.48;36.17;102410.59;4918697;28;20078;-70
2022/03/04 07:35:30;;;;;;;8.80;5.25;;;;;;;5.52;36.01;102413.19;4911589;28;20055;-70
2022/03/04 07:37:58;;;;;;;12.07;6.05;;;;;;;5.45;35.67;102408.84;4901105;28;20048;-69
2022/03/04 07:40:23;;;;;;;13.07;5.18;;;;;;;5.29;35.97;102412.22;4920136;28;20392;-70
2022/03/04 07:42:49;;;;;;;8.55;4.90;;;;;;;5.76;35.49;102403.81;4925834;28;20348;-70
2022/03/04 07:45:15;;;;;;;6.28;4.20;;;;;;;6.19;35.99;102409.16;4928137;28;20070;-70
2022/03/04 07:47:42;;;;;;;12.05;4.95;;;;;;;5.07;36.40;102417.22;4938854;28;20095;-70
2022/03/04 07:50:17;;;;;;;11.82;5.25;;;;;;;5.72;35.46;102412.44;4927969;28;20552;-71
2022/03/04 07:52:43;;;;;;;10.60;5.18;;;;;;;5.75;35.21;102412.44;4926357;28;20771;-71
2022/03/04 07:55:12;;;;;;;8.98;4.80;;;;;;;5.98;34.58;102408.25;4927839;28;20039;-70
2022/03/04 07:57:37;;;;;;;10.95;4.05;;;;;;;5.87;35.54;102420.31;4926092;28;20041;-71
2022/03/04 08:00:08;;;;;;;9.77;4.43;;;;;;;6.46;33.70;102417.09;4927331;28;20491;-71
2022/03/04 08:02:40;;;;;;;7.25;4.20;;;;;;;7.04;32.65;102417.97;4924264;28;20052;-71
2022/03/04 08:05:08;;;;;;;13.98;5.07;;;;;;;6.61;32.99;102425.75;4929641;28;20118;-70
2022/03/04 08:07:35;;;;;;;11.57;4.18;;;;;;;5.76;35.48;102434.97;4924195;28;20039;-70
2022/03/04 08:10:01;;;;;;;9.18;4.13;;;;;;;5.29;36.36;102420.84;4927041;28;20322;-71
2022/03/04 08:12:27;;;;;;;9.88;4.05;;;;;;;5.59;36.33;102420.19;4921166;28;20522;-69
2022/03/04 08:14:52;;;;;;;9.90;4.10;;;;;;;5.82;36.21;102419.44;4939857;28;20052;-70
2022/03/04 08:17:18;;;;;;;12.88;4.78;;;;;;;5.61;35.20;102421.06;4926887;28;20069;-70
2022/03/04 08:19:43;;;;;;;8.60;3.95;;;;;;;5.42;37.05;102419.22;4925051;28;20063;-70
2022/03/04 08:22:09;;;;;;;10.10;4.63;;;;;;;4.76;38.03;102432.47;4924815;28;20039;-69
2022/03/04 08:24:34;;;;;;;12.60;5.15;;;;;;;3.70;39.51;102438.19;4927449;28;20039;-70
2022/03/04 08:27:00;;;;;;;8.13;4.40;;;;;;;3.05;40.87;102442.34;4964869;23;20125;-73
2022/03/04 08:29:26;;;;;;;11.15;5.20;;;;;;;3.64;40.41;102435.50;4997980;28;20050;-76
2022/03/04 08:31:51;;;;;;;10.07;4.82;;;;;;;3.20;40.95;102439.09;4985221;28;20052;-73
2022/03/04 08:34:17;;;;;;;13.93;6.47;;;;;;;2.32;42.68;102436.72;5000797;28;20041;-75
2022/03/04 08:36:42;;;;;;;10.82;5.25;;;;;;;1.54;44.95;102443.66;4985883;28;20048;-74
2022/03/04 08:39:08;;;;;;;11.02;5.68;;;;;;;1.28;46.17;102451.63;4975611;28;20065;-73
2022/03/04 08:41:34;;;;;;;20.58;6.20;;;;;;;1.43;45.71;102450.28;4976466;28;20484;-72
2022/03/04 08:44:01;;;;;;;16.52;6.63;;;;;;;1.15;47.25;102453.84;4968758;28;20121;-72
2022/03/04 08:46:27;;;;;;;13.63;6.82;;;;;;;0.61;47.45;102466.25;4992103;28;20363;-72
2022/03/04 08:48:54;;;;;;;13.45;5.72;;;;;;;0.48;48.30;102477.03;4959449;28;20095;-73
2022/03/04 08:51:24;;;;;;;13.85;6.82;;;;;;;-0.01;49.78;102470.47;4992022;28;20038;-75
2022/03/04 08:53:53;;;;;;;16.17;5.57;;;;;;;0.07;49.42;102466.41;4971946;28;20072;-74
2022/03/04 08:56:19;;;;;;;12.93;6.15;;;;;;;0.08;50.08;102478.47;4972118;28;20174;-75
2022/03/04 08:58:44;;;;;;;12.55;6.53;;;;;;;0.10;49.93;102474.22;4976497;28;20038;-73
2022/03/04 09:01:10;;;;;;;15.88;6.78;;;;;;;-0.02;50.50;102476.44;4976764;28;20049;-73
2022/03/04 09:03:35;;;;;;;14.55;5.15;;;;;;;0.46;49.17;102468.38;4975454;28;20077;-74
2022/03/04 09:06:02;;;;;;;11.63;6.38;;;;;;;0.65;49.12;102478.34;4967532;28;20088;-77
2022/03/04 09:08:27;;;;;;;19.10;5.70;;;;;;;0.38;49.19;102481.03;4963799;28;20047;-75
2022/03/04 09:10:53;;;;;;;13.13;5.50;;;;;;;0.40;49.01;102465.63;4960973;28;20030;-75
2022/03/04 09:13:18;;;;;;;11.52;5.63;;;;;;;0.44;49.56;102476.06;4955220;28;20050;-75
2022/03/04 09:15:44;;;;;;;10.25;5.10;;;;;;;0.07;49.96;102476.69;4991088;28;20026;-73
2022/03/04 09:18:09;;;;;;;16.60;5.68;;;;;;;-0.14;50.18;102488.09;4974782;28;20043;-76
2022/03/04 09:20:35;;;;;;;12.63;5.43;;;;;;;0.12;50.17;102485.41;4979424;28;20037;-74
2022/03/04 09:23:01;;;;;;;11.55;5.00;;;;;;;0.41;49.28;102480.22;4990379;28;20132;-76
2022/03/04 09:25:27;;;;;;;15.05;5.88;;;;;;;0.22;50.06;102482.28;4972290;28;20035;-74
2022/03/04 09:27:53;;;;;;;18.17;7.13;;;;;;;0.46;49.65;102482.13;4956745;28;20053;-74
2022/03/04 09:30:19;;;;;;;15.02;6.57;;;;;;;0.21;49.49;102479.66;4975534;28;20077;-75
2022/03/04 09:32:44;;;;;;;13.30;5.65;;;;;;;0.50;49.39;102488.19;4981681;28;20817;-75
2022/03/04 09:35:10;;;;;;;12.93;6.55;;;;;;;0.89;48.54;102484.97;4968871;28;20035;-75
2022/03/04 09:37:36;;;;;;;17.70;7.80;;;;;;;0.77;48.97;102488.09;4976490;28;20918;-75
2022/03/04 09:40:03;;;;;;;15.50;7.22;;;;;;;1.15;47.67;102492.47;4972581;28;20100;-75
2022/03/04 09:42:29;;;;;;;19.73;8.80;;;;;;;0.84;48.92;102492.56;4968159;28;20064;-74
2022/03/04 09:44:55;;;;;;;14.80;6.50;;;;;;;0.92;48.60;102492.78;4968602;28;20029;-73
2022/03/04 09:47:22;;;;;;;17.58;6.80;;;;;;;0.81;48.86;102491.63;4966849;28;20073;-74
2022/03/04 09:49:50;;;;;;;14.85;5.70;;;;;;;0.95;48.60;102497.13;4965424;28;20098;-76
2022/03/04 09:52:17;;;;;;;16.90;6.75;;;;;;;1.10;49.14;102498.41;4974482;28;20130;-77
2022/03/04 09:54:50;;;;;;;16.98;6.20;;;;;;;0.67;48.55;102502.41;4990210;28;20035;-74
2022/03/04 09:57:16;;;;;;;12.82;6.30;;;;;;;1.17;47.46;102498.53;4977165;28;20606;-74
2022/03/04 09:59:43;;;;;;;13.30;5.75;;;;;;;1.24;47.66;102492.75;4968917;28;20042;-74
2022/03/04 10:02:10;;;;;;;15.63;6.07;;;;;;;1.51;46.03;102500.31;4986134;28;20105;-73
2022/03/04 10:04:38;;;;;;;16.35;5.60;;;;;;;1.32;47.01;102504.94;4976366;28;20043;-73
2022/03/04 10:07:17;;;;;;;12.57;5.85;;;;;;;1.60;46.63;102499.66;4968062;28;20073;-74
2022/03/04 10:09:49;;;;;;;10.55;5.15;;;;;;;1.33;46.81;102505.84;4970794;28;20026;-73
2022/03/04 10:12:17;;;;;;;10.25;4.80;;;;;;;1.16;47.63;102514.84;4970132;28;20819;-73
2022/03/04 10:15:06;;;;;;;13.05;6.85;;;;;;;1.77;45.86;102508.63;4992980;28;20259;-74
2022/03/04 10:17:34;;;;;;;12.45;5.72;;;;;;;2.18;45.61;102506.09;4954092;28;20830;-73
2022/03/04 10:20:04;;;;;;;11.77;5.05;;;;;;;2.05;45.29;102501.50;4997535;28;20041;-74
2022/03/04 10:22:37;;;;;;;13.73;5.15;;;;;;;1.87;45.84;102504.56;4954018;28;20042;-74
2022/03/04 10:25:17;;;;;;;11.68;5.45;;;;;;;1.71;46.84;102505.91;4993504;28;20503;-74
2022/03/04 10:27:43;;;;;;;12.32;5.18;;;;;;;1.76;46.57;102516.34;4951074;28;20042;-74
2022/03/04 10:30:09;;;;;;;11.18;4.72;;;;;;;0.84;47.95;102508.03;4993319;28;20049;-75
2022/03/04 10:32:35;;;;;;;11.50;4.47;;;;;;;0.86;48.56;102513.22;4970151;28;20039;-75
2022/03/04 10:35:06;;;;;;;9.40;4.30;;;;;;;0.64;48.54;102527.22;4961496;28;20040;-75
2022/03/04 10:37:46;;;;;;;7.68;3.05;;;;;;;0.57;49.08;102510.72;4972268;28;20113;-75
2022/03/04 10:40:23;;;;;;;9.52;4.25;;;;;;;0.38;49.27;102511.88;4972699;28;20073;-75
2022/03/04 10:42:51;;;;;;;12.05;4.50;;;;;;;0.69;48.75;102503.31;4974120;28;20078;-74
2022/03/04 10:45:26;;;;;;;12.77;4.32;;;;;;;1.02;48.83;102505.06;4953059;28;20536;-74
2022/03/04 10:47:52;;;;;;;8.80;4.40;;;;;;;1.19;47.64;102512.34;4959218;28;20197;-74
2022/03/04 10:50:25;;;;;;;10.15;4.82;;;;;;;0.93;48.64;102509.97;4973434;28;20146;-74
2022/03/04 10:53:00;;;;;;;9.52;4.63;;;;;;;1.58;47.69;102509.91;4982460;28;20041;-75
2022/03/04 10:55:38;;;;;;;19.15;4.90;;;;;;;1.87;46.35;102505.41;4971565;28;20034;-73
2022/03/04 10:58:26;;;;;;;11.27;3.97;;;;;;;1.49;47.01;102512.28;4970332;28;20096;-74
2022/03/04 11:00:54;;;;;;;8.80;4.72;;;;;;;0.98;48.11;102513.53;4947271;28;20046;-74
2022/03/04 11:03:25;;;;;;;8.73;3.65;;;;;;;1.25;47.51;102507.34;4978821;28;20085;-74
2022/03/04 11:05:54;;;;;;;8.90;4.05;;;;;;;1.37;47.71;102502.47;4967193;28;20547;-74
2022/03/04 11:08:21;;;;;;;9.25;3.53;;;;;;;1.37;47.35;102502.47;4985798;28;20043;-74
2022/03/04 11:10:47;;;;;;;10.05;3.50;;;;;;;1.16;48.02;102494.25;4994911;28;20484;-73
2022/03/04 11:13:13;;;;;;;7.57;3.67;;;;;;;0.80;48.51;102507.91;4971044;28;20065;-74
2022/03/04 11:15:40;;;;;;;8.82;4.07;;;;;;;1.19;48.44;102496.88;4968924;28;20047;-73